Time;durP1;ratioP1;P1;durP2;ratioP2;P2;SDS_P1;SDS_P2;PMS_P1;PMS_P2;Temp;Humidity;BMP_temperature;BMP_pressure;BME280_temperature;BME280_humidity;BME280_pressure;Samples;Min_cycle;Max_cycle;Signal;HPM_P1;HPM_P2
2021/09/27 00:02:13;;;;;;;20.15;10.30;;;;;;;;;;5121796;28;20467;-84
2021/09/27 00:04:39;;;;;;;15.27;9.90;;;;;;;;;;5121973;28;20042;-84
2021/09/27 00:07:05;;;;;;;13.13;8.43;;;;;;;;;;5123441;28;20383;-84
2021/09/27 00:09:33;;;;;;;15.25;8.40;;;;;;;;;;5121760;28;20122;-84
2021/09/27 00:12:05;;;;;;;11.75;8.27;;;;;;;;;;5104879;28;20032;-84
2021/09/27 00:14:32;;;;;;;16.83;10.10;;;;;;;;;;5122836;28;20103;-84
2021/09/27 00:16:57;;;;;;;17.45;10.40;;;;;;;;;;5122983;28;20035;-84
2021/09/27 00:19:24;;;;;;;20.15;11.23;;;;;;;;;;5124679;28;20039;-84
2021/09/27 00:21:54;;;;;;;28.42;11.70;;;;;;;;;;5125330;28;20089;-84
2021/09/27 00:24:20;;;;;;;16.17;11.73;;;;;;;;;;5127338;28;20031;-84
2021/09/27 00:26:47;;;;;;;19.48;12.50;;;;;;;;;;5126793;28;20367;-84
2021/09/27 00:29:12;;;;;;;16.33;12.05;;;;;;;;;;5105624;28;20047;-84
2021/09/27 00:31:39;;;;;;;17.45;12.32;;;;;;;;;;5106016;28;20035;-85
2021/09/27 00:34:05;;;;;;;26.33;12.75;;;;;;;;;;5103901;28;20078;-84
2021/09/27 00:36:31;;;;;;;31.33;15.30;;;;;;;;;;5103713;28;20024;-84
2021/09/27 00:38:56;;;;;;;23.42;15.05;;;;;;;;;;5103629;28;20058;-84
2021/09/27 00:41:24;;;;;;;95.47;16.77;;;;;;;;;;5103929;28;20074;-84
2021/09/27 00:43:50;;;;;;;38.47;15.18;;;;;;;;;;5104101;28;20437;-84
2021/09/27 00:46:21;;;;;;;32.03;17.45;;;;;;;;;;5103700;28;20032;-84
2021/09/27 00:48:47;;;;;;;113.43;17.83;;;;;;;;;;5105765;28;20040;-84
2021/09/27 00:51:16;;;;;;;20.88;14.13;;;;;;;;;;5106333;28;20055;-84
2021/09/27 00:53:47;;;;;;;19.25;13.25;;;;;;;;;;5105023;28;20066;-85
2021/09/27 00:56:17;;;;;;;17.88;13.43;;;;;;;;;;5104383;28;20028;-84
2021/09/27 00:58:44;;;;;;;16.60;12.80;;;;;;;;;;5102549;28;20039;-84
2021/09/27 01:01:09;;;;;;;27.88;13.52;;;;;;;;;;5103042;28;20040;-84
2021/09/27 01:03:35;;;;;;;14.77;12.38;;;;;;;;;;5121936;28;20036;-84
2021/09/27 01:06:25;;;;;;;16.98;12.25;;;;;;;;;;5123218;28;20035;-84
2021/09/27 01:09:23;;;;;;;14.75;11.20;;;;;;;;;;5122702;28;20043;-84
2021/09/27 01:11:54;;;;;;;15.02;12.18;;;;;;;;;;5098872;28;20046;-84
2021/09/27 01:14:26;;;;;;;18.98;14.05;;;;;;;;;;5120468;28;20071;-84
2021/09/27 01:17:08;;;;;;;18.90;13.38;;;;;;;;;;5120093;28;20046;-84
2021/09/27 01:19:46;;;;;;;19.63;14.18;;;;;;;;;;5120869;28;20062;-84
2021/09/27 01:22:30;;;;;;;44.58;13.68;;;;;;;;;;5122553;28;20043;-84
2021/09/27 01:25:23;;;;;;;20.13;13.43;;;;;;;;;;5120375;28;20023;-84
2021/09/27 01:28:17;;;;;;;19.40;12.35;;;;;;;;;;5121150;28;20066;-84
2021/09/27 01:31:11;;;;;;;27.10;14.23;;;;;;;;;;5106136;28;20044;-84
2021/09/27 01:33:41;;;;;;;19.08;14.30;;;;;;;;;;5100975;28;20073;-84
2021/09/27 01:36:15;;;;;;;22.63;13.82;;;;;;;;;;5099603;28;20040;-84
2021/09/27 01:38:46;;;;;;;22.83;14.07;;;;;;;;;;5098444;28;20038;-84
2021/09/27 01:41:24;;;;;;;23.13;13.57;;;;;;;;;;5099123;28;20043;-84
2021/09/27 01:44:11;;;;;;;60.85;16.80;;;;;;;;;;5098972;28;20039;-84
2021/09/27 01:46:56;;;;;;;28.10;16.58;;;;;;;;;;5102789;28;20031;-84
2021/09/27 01:49:33;;;;;;;38.17;15.20;;;;;;;;;;5085830;28;20038;-84
2021/09/27 01:52:02;;;;;;;27.45;13.95;;;;;;;;;;5102788;28;20361;-84
2021/09/27 01:54:41;;;;;;;16.55;13.07;;;;;;;;;;5103537;28;20046;-84
2021/09/27 01:57:16;;;;;;;26.83;13.00;;;;;;;;;;5103517;28;20089;-84
2021/09/27 01:59:59;;;;;;;21.20;12.90;;;;;;;;;;5084371;28;20040;-84
2021/09/27 02:02:32;;;;;;;18.50;12.68;;;;;;;;;;5082225;28;20036;-84
2021/09/27 02:05:18;;;;;;;15.50;11.60;;;;;;;;;;5082072;28;20127;-84
2021/09/27 02:07:57;;;;;;;51.67;12.77;;;;;;;;;;5081129;28;20052;-84
2021/09/27 02:10:28;;;;;;;22.95;13.80;;;;;;;;;;5081605;28;20040;-84
2021/09/27 02:13:12;;;;;;;243.73;18.80;;;;;;;;;;5080004;28;20029;-83
2021/09/27 02:15:43;;;;;;;226.25;17.02;;;;;;;;;;5081609;28;20043;-80
2021/09/27 02:18:35;;;;;;;99.95;12.90;;;;;;;;;;5080303;28;20059;-83
2021/09/27 02:21:10;;;;;;;22.58;12.25;;;;;;;;;;5085331;28;20048;-84
2021/09/27 02:24:03;;;;;;;49.17;11.50;;;;;;;;;;5085380;28;20033;-85
2021/09/27 02:26:28;;;;;;;23.58;9.77;;;;;;;;;;5084261;28;20491;-84
2021/09/27 02:28:54;;;;;;;15.73;10.70;;;;;;;;;;5089693;28;20035;-84
2021/09/27 02:31:40;;;;;;;13.13;10.75;;;;;;;;;;5125480;28;20292;-84
2021/09/27 02:34:54;;;;;;;73.80;11.38;;;;;;;;;;5125702;28;20027;-85
2021/09/27 02:37:43;;;;;;;17.88;9.50;;;;;;;;;;5100023;28;20040;-84
2021/09/27 02:40:27;;;;;;;49.88;11.00;;;;;;;;;;5066147;28;20538;-84
2021/09/27 02:42:59;;;;;;;17.48;10.32;;;;;;;;;;5116592;28;20103;-85
2021/09/27 02:45:27;;;;;;;26.67;11.32;;;;;;;;;;5121778;28;20027;-84
2021/09/27 02:48:14;;;;;;;58.03;14.57;;;;;;;;;;5120835;28;20039;-84
2021/09/27 02:50:43;;;;;;;28.67;13.63;;;;;;;;;;5119964;27;20035;-85
2021/09/27 02:53:11;;;;;;;58.92;14.93;;;;;;;;;;5099706;28;20031;-86
2021/09/27 02:56:05;;;;;;;135.85;19.80;;;;;;;;;;5113248;28;20036;-87
2021/09/27 02:58:40;;;;;;;34.42;14.35;;;;;;;;;;5119986;28;20504;-87
2021/09/27 03:01:17;;;;;;;44.20;15.00;;;;;;;;;;5115167;28;20072;-84
2021/09/27 03:04:04;;;;;;;31.50;14.40;;;;;;;;;;5119342;28;20040;-84
2021/09/27 03:06:55;;;;;;;;;;;;;;;;;;5102118;28;20038;-82
2021/09/27 03:09:27;;;;;;;72.60;12.07;;;;;;;;;;5117164;28;19955;-82
2021/09/27 03:12:22;;;;;;;36.60;10.00;;;;;;;;;;5100358;28;20082;-82
2021/09/27 03:14:53;;;;;;;25.10;8.38;;;;;;;;;;5118530;28;20074;-83
2021/09/27 03:17:29;;;;;;;11.15;9.15;;;;;;;;;;5121489;28;20522;-83
2021/09/27 03:20:18;;;;;;;28.98;10.05;;;;;;;;;;5120833;28;20043;-83
2021/09/27 03:23:01;;;;;;;122.45;12.30;;;;;;;;;;5120174;28;20087;-82
2021/09/27 03:25:36;;;;;;;31.88;9.77;;;;;;;;;;5122026;28;20064;-82
2021/09/27 03:28:21;;;;;;;32.30;10.35;;;;;;;;;;5119898;28;20047;-82
2021/09/27 03:31:01;;;;;;;181.80;14.52;;;;;;;;;;5085665;28;20024;-83
2021/09/27 03:33:41;;;;;;;29.38;9.98;;;;;;;;;;5105017;28;20363;-82
2021/09/27 03:36:29;;;;;;;11.82;9.93;;;;;;;;;;5104216;28;20544;-82
2021/09/27 03:39:05;;;;;;;13.10;10.10;;;;;;;;;;5086662;28;20039;-82
2021/09/27 03:41:45;;;;;;;132.68;13.57;;;;;;;;;;5103797;28;20040;-82
2021/09/27 03:44:29;;;;;;;24.70;10.30;;;;;;;;;;5104032;28;20036;-82
2021/09/27 03:47:22;;;;;;;11.98;9.48;;;;;;;;;;5103341;28;20039;-83
2021/09/27 03:49:56;;;;;;;13.73;10.43;;;;;;;;;;5103883;28;20118;-84
2021/09/27 03:52:36;;;;;;;20.88;11.40;;;;;;;;;;5103910;28;20049;-83
2021/09/27 03:55:09;;;;;;;12.35;9.88;;;;;;;;;;5104212;28;20089;-84
2021/09/27 03:57:44;;;;;;;14.38;10.60;;;;;;;;;;5104336;28;20032;-83
2021/09/27 04:00:18;;;;;;;26.17;10.10;;;;;;;;;;5104372;28;20044;-84
2021/09/27 04:02:49;;;;;;;14.90;10.55;;;;;;;;;;5086862;28;20097;-82
2021/09/27 04:05:45;;;;;;;18.75;10.55;;;;;;;;;;5104184;28;20040;-83
2021/09/27 04:08:24;;;;;;;41.10;11.23;;;;;;;;;;5103539;28;20123;-83
2021/09/27 04:11:11;;;;;;;17.65;9.82;;;;;;;;;;5104059;28;20028;-83
2021/09/27 04:14:21;;;;;;;40.05;10.93;;;;;;;;;;5103440;28;20538;-83
2021/09/27 04:17:12;;;;;;;18.35;10.25;;;;;;;;;;5103175;28;20036;-83
2021/09/27 04:19:53;;;;;;;21.67;10.75;;;;;;;;;;5099823;28;20075;-83
2021/09/27 04:22:27;;;;;;;13.90;9.65;;;;;;;;;;5103652;28;20028;-82
2021/09/27 04:25:27;;;;;;;10.43;9.13;;;;;;;;;;5102769;28;20038;-82
2021/09/27 04:28:04;;;;;;;20.35;10.63;;;;;;;;;;5100389;28;20032;-82
2021/09/27 04:31:14;;;;;;;11.00;9.68;;;;;;;;;;5100267;28;20089;-82
2021/09/27 04:34:11;;;;;;;38.47;11.05;;;;;;;;;;5098302;28;20822;-83
2021/09/27 04:36:43;;;;;;;34.47;12.05;;;;;;;;;;5102508;28;20043;-82
2021/09/27 04:39:16;;;;;;;43.92;11.65;;;;;;;;;;5099908;28;20038;-82
2021/09/27 04:42:05;;;;;;;57.38;12.70;;;;;;;;;;5099820;28;20051;-82
2021/09/27 04:44:49;;;;;;;81.78;12.70;;;;;;;;;;5100985;28;20067;-82
2021/09/27 04:47:26;;;;;;;82.78;12.88;;;;;;;;;;5100851;28;20035;-82
2021/09/27 04:50:15;;;;;;;25.25;11.35;;;;;;;;;;5100776;28;20422;-82
2021/09/27 04:53:04;;;;;;;85.80;12.75;;;;;;;;;;5100886;28;20036;-82
2021/09/27 04:55:53;;;;;;;71.82;12.73;;;;;;;;;;5100720;28;20063;-82
2021/09/27 04:58:48;;;;;;;54.95;11.23;;;;;;;;;;5100218;28;20511;-82
2021/09/27 05:01:36;;;;;;;46.75;12.52;;;;;;;;;;5098547;28;20575;-82
2021/09/27 05:04:29;;;;;;;20.30;10.82;;;;;;;;;;5101227;28;20036;-82
2021/09/27 05:07:13;;;;;;;18.77;10.40;;;;;;;;;;5098587;28;20483;-83
2021/09/27 05:10:36;;;;;;;27.60;9.98;;;;;;;;;;5100628;28;20040;-82
2021/09/27 05:13:19;;;;;;;12.98;9.25;;;;;;;;;;5077542;28;20082;-82
2021/09/27 05:15:58;;;;;;;16.92;10.95;;;;;;;;;;5076931;28;20123;-82
2021/09/27 05:18:34;;;;;;;32.13;11.65;;;;;;;;;;5085683;28;20504;-82
2021/09/27 05:21:33;;;;;;;45.17;12.60;;;;;;;;;;5100272;28;20036;-82
2021/09/27 05:24:14;;;;;;;32.58;11.60;;;;;;;;;;5101321;28;20032;-84
2021/09/27 05:26:48;;;;;;;41.53;11.68;;;;;;;;;;5103836;28;20060;-83
2021/09/27 05:29:47;;;;;;;27.58;11.60;;;;;;;;;;5102677;28;20044;-82
2021/09/27 05:32:40;;;;;;;33.10;11.32;;;;;;;;;;5103034;28;20051;-83
2021/09/27 05:35:43;;;;;;;12.68;10.68;;;;;;;;;;5103537;28;20407;-82
2021/09/27 05:38:46;;;;;;;17.98;11.35;;;;;;;;;;5066051;28;20533;-83
2021/09/27 05:41:31;;;;;;;11.75;9.50;;;;;;;;;;5078481;28;20119;-82
2021/09/27 05:44:25;;;;;;;14.00;10.37;;;;;;;;;;5101724;28;20509;-82
2021/09/27 05:47:11;;;;;;;10.05;9.00;;;;;;;;;;5099885;28;20301;-82
2021/09/27 05:49:46;;;;;;;13.38;8.85;;;;;;;;;;5098192;28;20056;-82
2021/09/27 05:52:25;;;;;;;19.05;9.98;;;;;;;;;;5099521;28;20509;-82
2021/09/27 05:55:00;;;;;;;16.67;9.82;;;;;;;;;;5100323;28;20122;-82
2021/09/27 05:57:48;;;;;;;25.45;10.15;;;;;;;;;;5100261;28;20040;-82
2021/09/27 06:00:32;;;;;;;15.48;11.13;;;;;;;;;;5099968;28;20039;-82
2021/09/27 06:03:31;;;;;;;12.75;10.20;;;;;;;;;;5100441;28;20051;-82
2021/09/27 06:06:24;;;;;;;33.95;14.15;;;;;;;;;;5099865;28;20036;-82
2021/09/27 06:08:55;;;;;;;19.92;13.23;;;;;;;;;;5080329;28;20063;-82
2021/09/27 06:11:54;;;;;;;101.38;16.25;;;;;;;;;;5099745;28;20101;-82
2021/09/27 06:14:20;;;;;;;61.55;15.45;;;;;;;;;;5091060;28;20419;-82
2021/09/27 06:16:56;;;;;;;26.52;15.55;;;;;;;;;;5099428;28;20111;-82
2021/09/27 06:19:40;;;;;;;;;;;;;;;;;;5099076;28;20119;-82
2021/09/27 06:22:24;;;;;;;32.85;14.20;;;;;;;;;;5099683;28;19934;-82
2021/09/27 06:25:07;;;;;;;33.35;15.15;;;;;;;;;;5097899;28;20036;-82
2021/09/27 06:27:38;;;;;;;87.20;13.63;;;;;;;;;;5099617;28;20471;-83
2021/09/27 06:30:17;;;;;;;155.13;17.35;;;;;;;;;;5109950;28;20390;-83
2021/09/27 06:33:31;;;;;;;124.70;16.42;;;;;;;;;;5117348;28;20078;-82
2021/09/27 06:35:58;;;;;;;32.63;14.73;;;;;;;;;;5076236;28;20439;-83
2021/09/27 06:38:33;;;;;;;227.55;17.73;;;;;;;;;;5117144;28;20043;-83
2021/09/27 06:41:00;;;;;;;258.17;19.50;;;;;;;;;;5118024;28;20038;-85
2021/09/27 06:43:27;;;;;;;33.95;17.13;;;;;;;;;;5120105;28;20036;-81
2021/09/27 06:45:53;;;;;;;23.77;15.88;;;;;;;;;;5120067;28;20045;-84
2021/09/27 06:48:20;;;;;;;26.30;16.90;;;;;;;;;;5117819;28;20042;-80
2021/09/27 06:50:47;;;;;;;30.40;18.40;;;;;;;;;;5118595;28;20040;-80
2021/09/27 06:53:13;;;;;;;50.38;18.40;;;;;;;;;;5118699;28;20035;-81
2021/09/27 06:55:39;;;;;;;24.15;16.13;;;;;;;;;;5119274;28;20110;-81
2021/09/27 06:58:05;;;;;;;21.92;15.77;;;;;;;;;;5117796;28;20027;-81
2021/09/27 07:00:32;;;;;;;20.60;14.40;;;;;;;;;;5104108;28;20031;-82
2021/09/27 07:02:58;;;;;;;17.83;13.15;;;;;;;;;;5098846;28;20514;-82
2021/09/27 07:05:24;;;;;;;16.83;13.20;;;;;;;;;;5098515;28;20043;-81
2021/09/27 07:07:50;;;;;;;14.80;12.30;;;;;;;;;;5098592;28;20047;-85
2021/09/27 07:10:21;;;;;;;16.20;12.43;;;;;;;;;;5102446;28;20063;-85
2021/09/27 07:12:47;;;;;;;15.48;13.80;;;;;;;;;;5100762;28;20028;-80
2021/09/27 07:15:14;;;;;;;21.80;15.38;;;;;;;;;;5099468;28;20510;-78
2021/09/27 07:17:40;;;;;;;20.30;15.35;;;;;;;;;;5096080;28;20067;-81
2021/09/27 07:20:09;;;;;;;17.10;12.77;;;;;;;;;;5080460;28;20036;-79
2021/09/27 07:22:36;;;;;;;18.48;13.57;;;;;;;;;;5097408;28;20031;-81
2021/09/27 07:25:03;;;;;;;20.42;15.05;;;;;;;;;;5097772;28;20040;-81
2021/09/27 07:27:28;;;;;;;18.20;13.60;;;;;;;;;;5098836;28;20043;-80
2021/09/27 07:29:54;;;;;;;20.52;15.38;;;;;;;;;;5098052;28;20118;-82
2021/09/27 07:32:19;;;;;;;20.70;15.40;;;;;;;;;;5096891;28;20056;-78
2021/09/27 07:34:45;;;;;;;21.00;15.70;;;;;;;;;;5096857;28;20040;-79
2021/09/27 07:37:10;;;;;;;18.52;14.52;;;;;;;;;;5097985;28;20036;-78
2021/09/27 07:39:35;;;;;;;20.95;14.38;;;;;;;;;;5096365;28;20028;-79
2021/09/27 07:42:01;;;;;;;18.77;13.27;;;;;;;;;;5098838;28;20036;-81
2021/09/27 07:44:27;;;;;;;20.05;13.63;;;;;;;;;;5095993;28;20036;-80
2021/09/27 07:46:52;;;;;;;17.98;12.93;;;;;;;;;;5099235;28;20077;-82
2021/09/27 07:49:17;;;;;;;16.23;12.30;;;;;;;;;;5096116;28;20378;-81
2021/09/27 07:51:43;;;;;;;16.63;12.05;;;;;;;;;;5097995;28;20036;-79
2021/09/27 07:54:10;;;;;;;14.82;11.68;;;;;;;;;;5095646;28;20016;-79
2021/09/27 07:56:36;;;;;;;20.15;12.48;;;;;;;;;;5098521;28;20047;-81
2021/09/27 07:59:06;;;;;;;19.77;13.27;;;;;;;;;;5099204;28;20077;-81
2021/09/27 08:01:32;;;;;;;24.13;12.75;;;;;;;;;;5115672;28;20049;-82
2021/09/27 08:03:58;;;;;;;17.73;12.43;;;;;;;;;;5120524;28;20126;-82
2021/09/27 08:06:24;;;;;;;16.40;12.15;;;;;;;;;;5119783;28;20521;-81
2021/09/27 08:08:49;;;;;;;16.27;12.52;;;;;;;;;;5116525;28;20089;-81
2021/09/27 08:11:15;;;;;;;17.50;13.27;;;;;;;;;;5098779;28;20112;-81
2021/09/27 08:13:40;;;;;;;15.40;11.80;;;;;;;;;;5098511;28;20506;-81
2021/09/27 08:16:05;;;;;;;18.95;13.30;;;;;;;;;;5100509;28;20886;-80
2021/09/27 08:18:31;;;;;;;20.45;14.75;;;;;;;;;;5121594;28;20047;-80
2021/09/27 08:21:02;;;;;;;19.38;12.75;;;;;;;;;;5120592;28;20036;-81
2021/09/27 08:23:28;;;;;;;14.43;10.48;;;;;;;;;;5121036;28;20070;-81
2021/09/27 08:25:54;;;;;;;13.32;11.77;;;;;;;;;;5122281;28;20040;-82
2021/09/27 08:28:23;;;;;;;12.88;10.13;;;;;;;;;;5121612;28;20069;-81
2021/09/27 08:30:52;;;;;;;20.58;10.82;;;;;;;;;;5104459;28;20078;-81
2021/09/27 08:33:19;;;;;;;15.48;10.68;;;;;;;;;;5101069;28;20040;-83
2021/09/27 08:35:47;;;;;;;14.88;9.43;;;;;;;;;;5100589;28;20039;-79
2021/09/27 08:38:15;;;;;;;12.45;9.82;;;;;;;;;;5099988;28;20044;-79
2021/09/27 08:41:04;;;;;;;11.02;9.40;;;;;;;;;;5099164;28;20036;-80
2021/09/27 08:43:32;;;;;;;11.50;8.95;;;;;;;;;;5099299;28;20058;-80
2021/09/27 08:46:11;;;;;;;18.30;10.77;;;;;;;;;;5097418;28;20044;-79
2021/09/27 08:48:40;;;;;;;15.73;8.60;;;;;;;;;;5097361;28;20093;-81
2021/09/27 08:51:06;;;;;;;14.23;8.52;;;;;;;;;;5097094;28;20028;-79
2021/09/27 08:53:37;;;;;;;12.35;9.10;;;;;;;;;;5099346;28;20089;-81
2021/09/27 08:56:26;;;;;;;15.35;9.18;;;;;;;;;;5098791;28;20050;-80
2021/09/27 08:59:03;;;;;;;12.90;8.77;;;;;;;;;;5100561;28;20034;-79
2021/09/27 09:01:51;;;;;;;14.10;8.55;;;;;;;;;;5118192;28;20119;-79
2021/09/27 09:04:25;;;;;;;12.43;8.40;;;;;;;;;;5116632;28;20110;-79
2021/09/27 09:06:56;;;;;;;13.05;7.97;;;;;;;;;;5116672;28;20050;-80
2021/09/27 09:09:26;;;;;;;11.13;7.55;;;;;;;;;;5120785;28;20051;-79
2021/09/27 09:11:51;;;;;;;13.27;9.43;;;;;;;;;;5119265;28;20115;-78
2021/09/27 09:14:41;;;;;;;12.85;9.38;;;;;;;;;;5119405;28;20432;-79
2021/09/27 09:17:31;;;;;;;15.98;7.95;;;;;;;;;;5115738;28;20126;-80
2021/09/27 09:20:00;;;;;;;13.85;7.72;;;;;;;;;;5117543;28;20038;-80
2021/09/27 09:22:27;;;;;;;12.25;7.90;;;;;;;;;;5116913;28;20028;-80
2021/09/27 09:24:53;;;;;;;10.07;7.70;;;;;;;;;;5116948;28;20406;-80
2021/09/27 09:27:19;;;;;;;13.93;7.75;;;;;;;;;;5117433;28;20047;-80
2021/09/27 09:29:46;;;;;;;10.68;8.00;;;;;;;;;;5106996;28;20040;-80
2021/09/27 09:32:25;;;;;;;14.07;7.93;;;;;;;;;;5096353;28;20110;-80
2021/09/27 09:35:11;;;;;;;10.73;7.70;;;;;;;;;;5097802;28;20127;-81
2021/09/27 09:37:40;;;;;;;21.10;11.57;;;;;;;;;;5096210;28;20040;-81
2021/09/27 09:40:23;;;;;;;12.73;8.50;;;;;;;;;;5097749;28;20032;-81
2021/09/27 09:43:03;;;;;;;13.68;7.97;;;;;;;;;;5097850;28;20036;-80
2021/09/27 09:45:33;;;;;;;11.43;7.82;;;;;;;;;;5097857;28;20031;-84
2021/09/27 09:48:13;;;;;;;10.50;7.68;;;;;;;;;;5097719;28;20088;-82
2021/09/27 09:50:39;;;;;;;13.07;7.15;;;;;;;;;;5098192;28;20036;-82
2021/09/27 09:53:17;;;;;;;9.68;7.68;;;;;;;;;;5079083;28;20075;-81
2021/09/27 09:55:51;;;;;;;10.73;7.50;;;;;;;;;;5099734;28;20355;-83
2021/09/27 09:58:40;;;;;;;11.90;6.82;;;;;;;;;;5098172;28;20035;-79
2021/09/27 10:01:23;;;;;;;9.63;7.10;;;;;;;;;;5076359;28;20591;-80
2021/09/27 10:04:03;;;;;;;9.98;6.22;;;;;;;;;;5077967;28;20040;-79
2021/09/27 10:06:46;;;;;;;9.57;5.45;;;;;;;;;;5078252;28;20078;-79
2021/09/27 10:09:33;;;;;;;8.07;6.13;;;;;;;;;;5076520;28;20081;-79
2021/09/27 10:12:02;;;;;;;10.55;6.70;;;;;;;;;;5076797;28;20029;-79
2021/09/27 10:14:28;;;;;;;12.98;5.47;;;;;;;;;;5076540;28;20613;-79
2021/09/27 10:17:27;;;;;;;11.38;6.03;;;;;;;;;;5075801;28;20082;-80
2021/09/27 10:20:19;;;;;;;9.93;5.70;;;;;;;;;;5078059;28;20472;-79
2021/09/27 10:23:11;;;;;;;8.65;5.03;;;;;;;;;;5077272;28;20064;-80
2021/09/27 10:25:42;;;;;;;10.40;5.60;;;;;;;;;;5076473;28;20060;-79
2021/09/27 10:28:13;;;;;;;9.15;5.47;;;;;;;;;;5076799;28;20041;-79
2021/09/27 10:30:42;;;;;;;9.73;5.10;;;;;;;;;;5094838;28;20067;-79
2021/09/27 10:33:20;;;;;;;9.15;5.28;;;;;;;;;;5099550;28;20063;-84
2021/09/27 10:36:16;;;;;;;9.02;5.05;;;;;;;;;;5100054;28;20047;-80
2021/09/27 10:38:52;;;;;;;7.95;4.75;;;;;;;;;;5099740;28;20028;-83
2021/09/27 10:41:29;;;;;;;6.55;4.93;;;;;;;;;;5098523;28;20032;-81
2021/09/27 10:43:58;;;;;;;9.18;4.78;;;;;;;;;;5098488;28;20028;-80
2021/09/27 10:46:34;;;;;;;5.72;4.43;;;;;;;;;;5098183;28;20036;-80
2021/09/27 10:49:01;;;;;;;11.70;3.95;;;;;;;;;;5097736;28;20040;-80
2021/09/27 10:51:34;;;;;;;4.75;4.13;;;;;;;;;;5096529;28;20502;-80
2021/09/27 10:54:04;;;;;;;8.00;5.32;;;;;;;;;;5097986;28;20043;-79
2021/09/27 10:56:40;;;;;;;9.80;4.75;;;;;;;;;;5096708;28;20068;-78
2021/09/27 10:59:13;;;;;;;6.55;4.43;;;;;;;;;;5095413;28;20028;-84
2021/09/27 11:01:56;;;;;;;5.20;4.30;;;;;;;;;;5097293;28;20043;-80
2021/09/27 11:04:30;;;;;;;8.98;4.75;;;;;;;;;;5096538;28;20565;-84
2021/09/27 11:06:58;;;;;;;8.93;5.43;;;;;;;;;;5097322;28;20096;-83
2021/09/27 11:09:28;;;;;;;7.68;4.80;;;;;;;;;;5099109;28;20036;-82
2021/09/27 11:12:06;;;;;;;6.90;4.85;;;;;;;;;;5098140;28;20054;-80
2021/09/27 11:14:40;;;;;;;5.60;4.05;;;;;;;;;;5098873;28;20051;-82
2021/09/27 11:17:05;;;;;;;9.43;4.93;;;;;;;;;;5097759;28;20036;-83
2021/09/27 11:19:33;;;;;;;5.60;4.22;;;;;;;;;;5098355;28;20054;-82
2021/09/27 11:22:14;;;;;;;7.82;4.82;;;;;;;;;;5080508;28;20030;-82
2021/09/27 11:24:49;;;;;;;7.05;4.45;;;;;;;;;;5098903;28;20024;-81
2021/09/27 11:27:17;;;;;;;7.55;4.90;;;;;;;;;;5098354;28;20126;-81
2021/09/27 11:29:58;;;;;;;10.00;6.20;;;;;;;;;;5078530;28;20037;-79
2021/09/27 11:32:28;;;;;;;10.77;4.85;;;;;;;;;;5075051;28;20082;-76
2021/09/27 11:35:02;;;;;;;9.95;5.32;;;;;;;;;;5072759;28;20044;-75
2021/09/27 11:37:56;;;;;;;6.75;4.50;;;;;;;;;;5072673;28;20093;-76
2021/09/27 11:40:24;;;;;;;8.57;5.03;;;;;;;;;;5071645;28;20083;-76
2021/09/27 11:42:55;;;;;;;7.22;4.85;;;;;;;;;;5072798;28;20024;-76
2021/09/27 11:45:29;;;;;;;14.93;5.35;;;;;;;;;;5072567;28;20443;-76
2021/09/27 11:48:06;;;;;;;8.98;5.40;;;;;;;;;;5072216;28;20037;-76
2021/09/27 11:50:34;;;;;;;8.27;4.38;;;;;;;;;;5072890;28;20044;-76
2021/09/27 11:53:02;;;;;;;9.80;5.03;;;;;;;;;;5075692;28;20074;-76
2021/09/27 11:56:11;;;;;;;7.00;4.55;;;;;;;;;;5075490;28;20131;-76
2021/09/27 11:59:11;;;;;;;5.72;4.88;;;;;;;;;;5062593;28;20072;-76
2021/09/27 12:01:48;;;;;;;8.40;5.15;;;;;;;;;;5075980;28;20036;-76
2021/09/27 12:05:05;;;;;;;5.85;4.68;;;;;;;;;;5076335;28;20032;-76
2021/09/27 12:07:49;;;;;;;7.22;4.57;;;;;;;;;;5074369;28;20190;-76
2021/09/27 12:10:32;;;;;;;9.55;4.85;;;;;;;;;;5076181;28;20032;-76
2021/09/27 12:13:04;;;;;;;8.32;5.13;;;;;;;;;;5074898;28;20055;-76
2021/09/27 12:15:36;;;;;;;5.78;4.43;;;;;;;;;;5076044;28;20032;-77
2021/09/27 12:18:02;;;;;;;7.63;4.13;;;;;;;;;;5075505;28;20043;-76
2021/09/27 12:20:39;;;;;;;6.90;4.25;;;;;;;;;;5075919;28;20024;-76
2021/09/27 12:23:10;;;;;;;9.95;5.03;;;;;;;;;;5075739;28;20038;-77
2021/09/27 12:25:39;;;;;;;6.47;5.00;;;;;;;;;;5074362;28;20055;-77
2021/09/27 12:28:10;;;;;;;7.25;4.90;;;;;;;;;;5082796;28;20093;-77
2021/09/27 12:30:40;;;;;;;7.10;4.88;;;;;;;;;;5096179;28;20536;-77
2021/09/27 12:33:25;;;;;;;7.53;4.70;;;;;;;;;;5094782;28;20131;-77
2021/09/27 12:36:00;;;;;;;9.20;4.45;;;;;;;;;;5094901;28;20040;-76
2021/09/27 12:38:26;;;;;;;7.63;4.22;;;;;;;;;;5095632;28;20107;-76
2021/09/27 12:40:53;;;;;;;6.03;4.13;;;;;;;;;;5094954;28;20478;-76
2021/09/27 12:43:22;;;;;;;4.90;3.92;;;;;;;;;;5095885;28;20044;-76
2021/09/27 12:45:52;;;;;;;6.30;4.50;;;;;;;;;;5095794;28;20047;-77
2021/09/27 12:48:22;;;;;;;6.00;3.83;;;;;;;;;;5094080;28;20057;-77
2021/09/27 12:50:52;;;;;;;5.70;3.75;;;;;;;;;;5095847;28;20050;-76
2021/09/27 12:53:21;;;;;;;7.82;4.20;;;;;;;;;;5095807;28;20042;-77
2021/09/27 12:55:53;;;;;;;7.00;4.13;;;;;;;;;;5095444;28;20089;-77
2021/09/27 12:58:59;;;;;;;4.32;3.40;;;;;;;;;;5095464;28;20074;-77
2021/09/27 13:01:27;;;;;;;5.67;3.50;;;;;;;;;;5073092;28;20044;-77
2021/09/27 13:04:00;;;;;;;6.57;3.80;;;;;;;;;;5086116;28;20294;-77
2021/09/27 13:06:30;;;;;;;7.00;3.60;;;;;;;;;;5094876;28;20065;-77
2021/09/27 13:09:11;;;;;;;5.25;3.85;;;;;;;;;;5095005;28;20101;-77
2021/09/27 13:11:44;;;;;;;5.13;3.42;;;;;;;;;;5095076;28;20039;-77
2021/09/27 13:14:17;;;;;;;7.35;3.58;;;;;;;;;;5094083;28;20043;-77
2021/09/27 13:16:45;;;;;;;7.72;3.80;;;;;;;;;;5095049;28;20040;-77
2021/09/27 13:19:51;;;;;;;4.85;3.70;;;;;;;;;;5095076;28;20082;-76
2021/09/27 13:22:42;;;;;;;5.60;3.53;;;;;;;;;;5095214;28;20114;-77
2021/09/27 13:25:21;;;;;;;5.78;3.70;;;;;;;;;;5095205;28;20039;-76
2021/09/27 13:27:59;;;;;;;6.53;4.32;;;;;;;;;;5094548;28;20032;-77
2021/09/27 13:30:26;;;;;;;9.48;4.65;;;;;;;;;;5076931;28;20036;-76
2021/09/27 13:33:06;;;;;;;8.23;4.15;;;;;;;;;;5093434;28;20036;-76
2021/09/27 13:35:38;;;;;;;7.90;3.78;;;;;;;;;;5094994;28;20040;-76
2021/09/27 13:38:08;;;;;;;7.38;4.32;;;;;;;;;;5094369;28;20473;-77
2021/09/27 13:40:58;;;;;;;6.97;4.05;;;;;;;;;;5094673;28;20047;-77
2021/09/27 13:43:40;;;;;;;6.97;4.30;;;;;;;;;;5094749;28;20479;-77
2021/09/27 13:46:28;;;;;;;6.60;3.70;;;;;;;;;;5094572;28;20465;-77
2021/09/27 13:48:54;;;;;;;5.95;3.55;;;;;;;;;;5076130;28;20036;-77
2021/09/27 13:51:23;;;;;;;7.00;4.10;;;;;;;;;;5094725;28;20039;-77
2021/09/27 13:53:53;;;;;;;7.43;4.13;;;;;;;;;;5093392;28;20059;-77
2021/09/27 13:56:26;;;;;;;6.50;4.07;;;;;;;;;;5094422;28;20089;-77
2021/09/27 13:58:51;;;;;;;4.57;3.50;;;;;;;;;;5094093;28;20032;-76
2021/09/27 14:01:18;;;;;;;6.40;3.53;;;;;;;;;;5094230;28;20024;-77
2021/09/27 14:03:44;;;;;;;5.70;3.45;;;;;;;;;;5094215;28;20035;-76
2021/09/27 14:06:15;;;;;;;9.32;4.38;;;;;;;;;;5094041;28;20036;-77
2021/09/27 14:08:41;;;;;;;6.30;3.63;;;;;;;;;;5093813;28;20075;-76
2021/09/27 14:11:06;;;;;;;4.97;3.40;;;;;;;;;;5094280;28;20499;-76
2021/09/27 14:13:32;;;;;;;4.80;3.20;;;;;;;;;;5092737;28;20078;-76
2021/09/27 14:16:07;;;;;;;4.95;3.65;;;;;;;;;;5093060;28;20036;-76
2021/09/27 14:18:34;;;;;;;5.72;3.85;;;;;;;;;;5084264;28;20707;-76
2021/09/27 14:21:00;;;;;;;7.35;3.85;;;;;;;;;;5080472;28;20032;-76
2021/09/27 14:23:26;;;;;;;6.85;3.80;;;;;;;;;;5080171;28;20021;-77
2021/09/27 14:25:52;;;;;;;8.20;3.80;;;;;;;;;;5080227;28;20721;-76
2021/09/27 14:28:20;;;;;;;8.80;4.30;;;;;;;;;;5080055;28;20126;-76
2021/09/27 14:30:46;;;;;;;7.40;4.28;;;;;;;;;;5078683;28;20127;-76
2021/09/27 14:33:12;;;;;;;11.07;3.78;;;;;;;;;;5080076;28;20674;-76
2021/09/27 14:35:38;;;;;;;9.70;4.10;;;;;;;;;;5079878;28;20300;-76
2021/09/27 14:38:06;;;;;;;4.53;3.22;;;;;;;;;;5078535;28;20618;-76
2021/09/27 14:40:32;;;;;;;4.45;3.58;;;;;;;;;;5079860;28;20131;-76
2021/09/27 14:42:58;;;;;;;5.45;3.70;;;;;;;;;;5080237;28;20422;-76
2021/09/27 14:45:24;;;;;;;9.52;3.30;;;;;;;;;;5079326;28;20465;-77
2021/09/27 14:47:49;;;;;;;4.53;3.42;;;;;;;;;;5086351;28;20032;-78
2021/09/27 14:50:22;;;;;;;6.13;3.83;;;;;;;;;;5094622;28;20064;-76
2021/09/27 14:52:48;;;;;;;7.88;3.92;;;;;;;;;;5093287;28;20118;-77
2021/09/27 14:55:15;;;;;;;10.07;3.80;;;;;;;;;;5083353;28;20143;-77
2021/09/27 14:57:42;;;;;;;7.90;4.07;;;;;;;;;;5079614;28;20519;-78
2021/09/27 15:00:11;;;;;;;8.75;3.40;;;;;;;;;;5077936;28;20031;-77
2021/09/27 15:02:36;;;;;;;6.18;4.30;;;;;;;;;;5077959;28;20032;-77
2021/09/27 15:05:04;;;;;;;5.53;3.53;;;;;;;;;;5079458;28;20043;-77
2021/09/27 15:07:29;;;;;;;7.05;3.60;;;;;;;;;;5078236;28;20040;-76
2021/09/27 15:09:55;;;;;;;5.15;3.95;;;;;;;;;;5061151;28;20570;-76
2021/09/27 15:12:21;;;;;;;8.98;4.50;;;;;;;;;;5077845;28;20128;-76
2021/09/27 15:14:47;;;;;;;8.98;4.03;;;;;;;;;;5079563;28;20031;-79
2021/09/27 15:17:13;;;;;;;6.05;4.50;;;;;;;;;;5077584;28;20255;-77
2021/09/27 15:19:38;;;;;;;5.85;3.90;;;;;;;;;;5079655;28;20020;-79